Latest Weather Observations for Yanakie

IDV60801

Issued at 9:35 pm EDT Saturday 1 November 2014 (issued every 30 minutes, with the page automatically refreshed every 10 minutes)

About weather observations | Map of weather stations | Latest weather observations for VIC | Other Formats
Station Details ID: 085301 Name: YANAKIE Lat: -38.81 Lon: 146.19 Height: 13.3 m
Data from the previous 72 hours. | See also: Recent months at Yanakie
Date/Time
EDT
Temp
°C
App
Temp
°C
Dew
Point
Rel
Hum
%
Delta-T
°C
Wind Press
QNH
hPa
Press
MSL
hPa
Rain
since 9 am
mm
Dir
 
Spd
km/h
Gust
km/h
Spd
kts
Gust
kts
01/09:33pm 10.5 0.6 4.9 68 2.5 WSW 46 69 25 37 1011.4 1011.4 1.0
01/09:30pm 10.4 0.4 4.1 65 2.8 WSW 46 61 25 33 1011.2 1011.2 1.0
01/09:12pm 10.6 1.0 3.6 62 3.1 W 43 63 23 34 1010.9 1010.9 1.0
01/09:00pm 10.4 0.3 3.7 63 2.9 W 46 61 25 33 1010.8 1010.8 1.0
01/08:30pm 10.5 1.1 4.6 67 2.6 W 43 65 23 35 1010.2 1010.2 1.0
01/08:10pm 10.0 0.6 4.4 68 2.5 W 43 61 23 33 1009.9 1009.8 1.0
01/08:00pm 10.2 -0.2 4.1 66 2.7 W 48 63 26 34 1009.7 1009.6 1.0
01/07:30pm 9.9 0.3 4.3 68 2.5 W 44 65 24 35 1009.2 1009.1 1.0
01/07:11pm 11.0 1.1 4.7 65 2.8 W 46 67 25 36 1008.8 1008.7 1.0
01/07:00pm 10.8 0.9 4.9 67 2.7 W 46 63 25 34 1008.6 1008.5 1.0
01/06:41pm 10.7 1.4 5.7 71 2.3 W 44 63 24 34 1008.2 1008.1 1.0
01/06:30pm 10.5 0.8 5.9 73 2.1 W 46 65 25 35 1008.2 1008.1 1.0
01/06:06pm 11.1 0.9 5.4 68 2.6 W 48 70 26 38 1007.8 1007.7 1.0
01/06:00pm 11.4 0.9 5.5 67 2.7 W 50 67 27 36 1007.7 1007.6 1.0
01/05:30pm 11.3 0.7 5.0 65 2.9 W 50 70 27 38 1007.3 1007.2 1.0
01/05:00pm 12.1 1.4 6.4 68 2.7 W 52 72 28 39 1006.7 1006.6 1.0
01/04:30pm 11.3 2.3 6.4 72 2.3 W 43 74 23 40 1006.5 1006.4 0.8
01/04:00pm 12.2 2.3 6.7 69 2.6 W 48 63 26 34 1005.9 1005.8 0.8
01/03:44pm 10.8 2.5 7.9 82 1.4 W 41 50 22 27 1005.8 1005.7 0.8
01/03:30pm 9.8 -2.5 6.9 82 1.4 WSW 61 85 33 46 1006.0 1005.9 0.6
01/03:26pm 9.8 -3.8 6.2 78 1.7 WSW 67 85 36 46 1005.9 1005.8 0.6
01/03:25pm 10.2 -3.9 6.4 77 1.8 WSW 70 85 38 46 1005.8 1005.7 0.6
01/03:22pm 12.1 1.8 6.4 68 2.7 W 50 74 27 40 1005.5 1005.4 0.6
01/03:00pm 12.9 3.7 8.0 72 2.4 W 46 63 25 34 1005.1 1005.0 0.6
01/02:31pm 13.4 4.9 8.5 72 2.4 WSW 43 63 23 34 1005.0 1004.9 0.6
01/02:30pm 13.8 5.2 9.0 73 2.4 WSW 44 63 24 34 1005.0 1004.9 0.6
01/02:04pm 14.3 3.9 9.1 71 2.7 W 54 74 29 40 1004.4 1004.3 0.6
01/02:00pm 14.3 4.4 8.3 67 3.0 W 50 69 27 37 1004.3 1004.2 0.6
01/01:30pm 14.4 6.3 10.0 75 2.3 W 43 65 23 35 1004.0 1003.9 0.6
01/01:15pm 14.1 4.6 8.5 69 2.8 W 48 67 26 36 1003.8 1003.7 0.6
01/01:00pm 14.6 5.3 9.0 69 2.9 W 48 65 26 35 1003.8 1003.7 0.6
01/12:44pm 14.0 4.7 9.2 73 2.5 W 48 69 26 37 1003.7 1003.6 0.6
01/12:30pm 13.0 3.3 8.9 76 2.1 W 50 67 27 36 1003.5 1003.4 0.4
01/12:00pm 13.9 4.9 8.7 71 2.6 W 46 59 25 32 1003.1 1003.0 0.4
01/11:39am 14.3 6.3 8.9 70 2.7 W 41 59 22 32 1002.8 1002.7 0.4
01/11:30am 15.0 6.7 9.4 69 2.9 W 43 59 23 32 1002.8 1002.7 0.4
01/11:24am 14.2 6.4 8.4 68 2.9 W 39 59 21 32 1002.7 1002.6 0.4
01/11:00am 14.0 5.8 8.2 68 2.9 W 41 54 22 29 1002.7 1002.6 0.4
01/10:30am 14.1 6.8 10.1 77 2.1 W 39 54 21 29 1002.5 1002.5 0.4
01/10:00am 12.9 7.4 11.8 93 0.6 WSW 32 41 17 22 1002.1 1002.1 0.4
01/09:30am 12.3 7.9 11.7 96 0.3 W 26 37 14 20 1001.9 1001.9 0.4
01/09:00am 11.3 4.8 10.5 95 0.4 WSW 35 50 19 27 1001.7 1001.7 6.8
01/08:30am 12.2 7.7 11.4 95 0.4 W 26 33 14 18 1000.8 1000.7 6.2
01/08:00am 13.0 7.6 12.2 95 0.4 W 32 43 17 23 999.8 999.7 6.0
01/07:30am 12.9 7.5 12.1 95 0.4 W 32 44 17 24 999.9 999.8 4.6
01/07:00am 12.9 7.4 12.0 94 0.5 W 32 41 17 22 999.5 999.4 2.2
01/06:30am 13.5 8.2 12.4 93 0.6 W 32 44 17 24 998.8 998.7 0.4
01/06:00am 13.7 9.9 12.4 92 0.7 W 24 35 13 19 998.3 998.2 0.0
01/05:30am 14.0 12.0 12.7 92 0.7 W 15 22 8 12 998.0 997.9 0.0
01/05:00am 13.8 12.1 12.5 92 0.7 WNW 13 20 7 11 998.3 998.2 0.0
01/04:30am 13.8 11.3 12.4 91 0.8 WNW 17 24 9 13 997.4 997.3 0.0
01/04:00am 13.9 10.8 12.3 90 0.9 W 20 28 11 15 997.5 997.4 0.0
01/03:58am 13.9 10.8 12.3 90 0.9 W 20 28 11 15 997.7 997.6 0.0
01/03:30am 14.6 11.0 13.0 90 0.9 W 24 37 13 20 999.8 999.7 0.0
01/03:00am 14.8 12.2 13.2 90 0.9 W 19 28 10 15 999.1 999.0 0.0
01/02:30am 14.6 11.0 13.0 90 0.9 W 24 33 13 18 998.4 998.3 0.0
01/02:00am 15.3 9.6 13.0 86 1.3 W 35 46 19 25 997.9 997.8 0.0
01/01:42am 15.9 11.1 12.8 82 1.7 W 30 43 16 23 997.9 997.8 0.0
01/01:30am 15.8 13.5 12.9 83 1.6 W 17 22 9 12 997.7 997.6 0.0
01/01:00am 15.7 12.6 11.5 76 2.3 W 19 26 10 14 996.8 996.7 0.0
01/12:30am 16.9 11.3 11.6 71 2.9 WSW 32 43 17 23 997.6 997.5 0.0
01/12:00am 20.2 12.5 11.4 57 4.9 W 43 52 23 28 996.5 996.4 0.0
 
Date/Time
EDT
Temp
°C
App
Temp
°C
Dew
Point
Rel
Hum
%
Delta-T
°C
Wind Press
QNH
hPa
Press
MSL
hPa
Rain
since 9 am
mm
Dir
 
Spd
km/h
Gust
km/h
Spd
kts
Gust
kts
31/11:49pm 19.6 18.2 14.6 73 2.9 WNW 15 28 8 15 995.2 995.2 0.0
31/11:46pm 18.2 12.6 14.5 79 2.1 WSW 37 56 20 30 996.6 996.5 0.0
31/11:30pm 18.0 17.4 14.7 81 1.9 ENE 11 17 6 9 994.7 994.7 0.0
31/11:00pm 17.1 16.5 14.6 85 1.4 ENE 11 15 6 8 995.7 995.6 0.0
31/10:30pm 17.0 16.3 14.3 84 1.5 ENE 11 17 6 9 996.2 996.1 0.0
31/10:00pm 17.7 17.0 14.2 80 2.0 ENE 11 15 6 8 997.0 996.9 0.0
31/09:30pm 18.0 17.2 13.9 77 2.3 ENE 11 17 6 9 997.7 997.6 0.0
31/09:00pm 18.5 17.4 14.2 76 2.5 ENE 13 19 7 10 998.2 998.1 0.0
31/08:30pm 17.9 16.6 13.8 77 2.3 E 13 20 7 11 998.4 998.3 0.0
31/08:00pm 18.1 17.2 13.6 75 2.6 E 11 17 6 9 998.9 998.8 0.0
31/07:30pm 18.3 17.2 14.2 77 2.4 E 13 20 7 11 999.4 999.3 0.0
31/07:00pm 18.9 17.9 14.6 76 2.5 E 13 19 7 10 999.8 999.7 0.0
31/06:30pm 19.9 19.4 14.9 73 2.9 ENE 11 15 6 8 1000.2 1000.1 0.0
31/06:00pm 21.6 20.9 15.4 68 3.7 ENE 13 19 7 10 1000.6 1000.5 0.0
31/05:30pm 23.2 22.8 15.3 61 4.7 E 11 15 6 8 1000.8 1000.7 0.0
31/05:00pm 23.3 23.2 15.9 63 4.5 E 11 15 6 8 1001.1 1001.0 0.0
31/04:30pm 22.5 22.1 15.1 63 4.4 E 11 17 6 9 1001.5 1001.4 0.0
31/04:00pm 23.4 23.5 15.5 61 4.8 ENE 9 13 5 7 1001.9 1001.9 0.0
31/03:30pm 23.7 23.0 15.5 60 4.9 ENE 13 19 7 10 1002.4 1002.4 0.0
31/03:00pm 23.1 22.3 15.2 61 4.7 ENE 13 17 7 9 1002.9 1002.9 0.0
31/02:30pm 22.2 20.7 13.0 56 5.3 ENE 13 17 7 9 1003.6 1003.6 0.0
31/02:00pm 22.5 22.5 15.1 63 4.4 ENE 9 13 5 7 1004.4 1004.4 0.0
31/01:30pm 21.3 21.5 14.7 66 3.9 E 7 11 4 6 1005.0 1005.0 0.0
31/01:00pm 20.3 19.9 14.2 68 3.5 ENE 9 13 5 7 1005.6 1005.6 0.0
31/12:30pm 19.1 18.4 14.4 74 2.7 ENE 11 17 6 9 1006.4 1006.4 0.0
31/12:00pm 18.0 16.4 13.9 77 2.3 ENE 15 20 8 11 1006.8 1006.8 0.0
31/11:30am 17.7 16.6 13.2 75 2.5 ENE 11 17 6 9 1007.7 1007.7 0.0
31/11:00am 17.3 16.0 13.8 80 2.0 NE 13 19 7 10 1008.0 1008.0 0.0
31/10:30am 15.7 14.1 12.8 83 1.6 ENE 13 20 7 11 1008.6 1008.6 0.0
31/10:00am 14.9 13.2 12.4 85 1.4 ENE 13 20 7 11 1008.7 1008.7 0.0
31/09:30am 14.5 12.5 12.7 89 1.0 ENE 15 20 8 11 1009.1 1009.1 0.0
31/09:00am 14.2 12.6 12.9 92 0.7 ENE 13 19 7 10 1009.6 1009.6 0.0
31/08:30am 13.9 12.8 13.0 94 0.5 ENE 11 19 6 10 1010.1 1010.1 0.0
31/08:00am 12.9 12.9 12.3 96 0.3 E 4 7 2 4 1010.5 1010.5 0.0
31/07:30am 10.9 10.3 10.4 97 0.3 NE 4 7 2 4 1010.6 1010.6 0.0
31/07:00am 7.5 6.4 7.1 97 0.2 N 2 4 1 2 1010.9 1010.9 0.0
31/06:30am 6.5 5.6 5.9 96 0.3 CALM 0 0 0 0 1010.8 1010.8 0.0
31/06:00am 8.0 6.1 7.4 96 0.3 NNE 7 9 4 5 1010.7 1010.7 0.0
31/05:30am 8.6 6.9 8.2 97 0.2 N 7 9 4 5 1010.8 1010.8 0.0
31/05:00am 7.5 5.6 6.9 96 0.3 N 6 7 3 4 1010.8 1010.8 0.0
31/04:30am 8.3 6.7 7.9 97 0.2 N 6 7 3 4 1011.1 1011.1 0.0
31/04:00am 8.3 6.6 7.7 96 0.3 NNE 6 7 3 4 1011.3 1011.3 0.0
31/03:30am 8.3 6.4 7.7 96 0.3 N 7 9 4 5 1011.5 1011.5 0.0
31/03:00am 6.9 5.3 6.3 96 0.3 N 4 6 2 3 1011.9 1011.9 0.0
31/02:30am 7.3 5.8 6.6 95 0.3 N 4 4 2 2 1012.1 1012.1 0.0
31/02:00am 6.7 5.0 6.0 95 0.3 N 4 6 2 3 1012.7 1012.7 0.0
31/01:30am 7.4 5.9 6.7 95 0.3 N 4 6 2 3 1013.1 1013.1 0.0
31/01:00am 7.5 6.0 6.6 94 0.4 N 4 4 2 2 1013.6 1013.6 0.0
31/12:30am 7.5 6.3 6.6 94 0.4 N 2 2 1 1 1013.7 1013.7 0.0
31/12:00am 8.2 6.8 7.3 94 0.4 N 4 4 2 2 1013.9 1013.9 0.0
 
Date/Time
EDT
Temp
°C
App
Temp
°C
Dew
Point
Rel
Hum
%
Delta-T
°C
Wind Press
QNH
hPa
Press
MSL
hPa
Rain
since 9 am
mm
Dir
 
Spd
km/h
Gust
km/h
Spd
kts
Gust
kts
30/11:30pm 8.3 6.9 7.2 93 0.5 N 4 6 2 3 1014.0 1014.0 0.0
30/11:00pm 8.3 6.9 7.2 93 0.5 N 4 6 2 3 1014.1 1014.1 0.0
30/10:30pm 7.9 6.4 6.7 92 0.6 NNW 4 6 2 3 1014.0 1014.0 0.0
30/10:00pm 8.8 6.9 7.6 92 0.6 NW 7 9 4 5 1014.0 1014.0 0.0
30/09:30pm 8.7 6.7 7.2 90 0.7 WNW 7 9 4 5 1013.9 1013.9 0.0
30/09:00pm 10.1 8.6 8.4 89 0.8 WNW 6 9 3 5 1014.0 1014.0 0.0
30/08:30pm 10.8 8.8 8.7 87 1.0 W 9 11 5 6 1013.7 1013.7 0.0
30/08:00pm 11.6 9.4 9.2 85 1.2 WSW 11 13 6 7 1013.6 1013.6 0.0
30/07:30pm 12.9 10.5 9.9 82 1.5 WSW 13 17 7 9 1013.7 1013.7 0.0
30/07:00pm 14.1 10.4 10.1 77 2.1 SW 20 24 11 13 1013.3 1013.3 0.0
30/06:30pm 14.9 11.2 10.3 74 2.4 WSW 20 28 11 15 1013.2 1013.2 0.0
30/06:00pm 15.5 11.5 10.5 72 2.6 SW 22 30 12 16 1013.3 1013.3 0.0
30/05:30pm 16.1 12.0 10.0 67 3.2 WSW 22 32 12 17 1013.1 1013.1 0.0
30/05:00pm 16.2 11.2 9.6 65 3.4 WSW 26 35 14 19 1013.0 1013.0 0.0
30/04:30pm 16.5 10.8 9.7 64 3.6 WSW 30 39 16 21 1013.2 1013.2 0.0
30/04:00pm 16.7 11.3 10.8 68 3.2 W 30 41 16 22 1013.4 1013.4 0.0
30/03:30pm 16.7 11.8 11.4 71 2.9 WSW 28 37 15 20 1013.3 1013.3 0.0
30/03:00pm 16.3 10.8 10.6 69 3.0 WSW 30 39 16 21 1013.3 1013.3 0.0
30/02:30pm 16.3 11.3 9.7 65 3.4 W 26 41 14 22 1013.4 1013.4 0.0
30/02:00pm 15.7 10.9 10.2 70 2.9 WSW 26 33 14 18 1013.6 1013.6 0.0
30/01:30pm 16.1 10.9 10.4 69 3.0 WSW 28 37 15 20 1013.7 1013.7 0.0
30/01:00pm 16.1 10.5 10.2 68 3.1 W 30 41 16 22 1013.9 1013.9 0.0
30/12:30pm 15.8 10.2 10.3 70 2.9 W 30 39 16 21 1014.0 1014.0 0.0
30/12:00pm 15.9 10.8 10.7 71 2.8 W 28 39 15 21 1014.2 1014.2 0.0
30/11:30am 15.7 11.0 10.7 72 2.7 W 26 37 14 20 1014.2 1014.2 0.0
30/11:00am 14.9 11.3 11.7 81 1.7 W 22 28 12 15 1014.5 1014.5 0.0
30/10:30am 14.2 9.9 10.8 80 1.8 W 24 32 13 17 1014.8 1014.8 0.0
30/10:00am 14.1 10.8 12.7 91 0.8 W 22 28 12 15 1014.5 1014.5 0.0
30/09:30am 12.7 11.2 11.8 94 0.5 WNW 11 15 6 8 1014.6 1014.6 0.0
30/09:00am 12.8 10.9 11.9 94 0.5 W 13 19 7 10 1014.6 1014.6 0.4
30/08:30am 12.7 10.4 11.9 95 0.4 WNW 15 24 8 13 1014.5 1014.5 0.2
30/08:00am 12.6 10.7 11.8 95 0.4 WNW 13 20 7 11 1014.3 1014.3 0.2
30/07:30am 12.6 11.1 11.8 95 0.4 NW 11 19 6 10 1014.1 1014.1 0.0
30/07:00am 12.3 10.7 11.5 95 0.4 NW 11 19 6 10 1013.8 1013.8 0.0
30/06:30am 12.3 11.1 11.5 95 0.4 WNW 9 13 5 7 1013.5 1013.5 0.0
30/06:00am 12.2 11.3 11.4 95 0.4 WNW 7 11 4 6 1013.3 1013.3 0.0
30/05:30am 12.4 11.2 11.6 95 0.4 WNW 9 11 5 6 1013.6 1013.6 0.0
30/05:00am 12.4 10.8 11.6 95 0.4 WNW 11 15 6 8 1013.6 1013.6 0.0
30/04:30am 12.3 11.1 11.5 95 0.4 WNW 9 13 5 7 1013.6 1013.6 0.0
30/04:00am 12.2 10.9 11.4 95 0.4 NW 9 15 5 8 1013.8 1013.8 0.0
30/03:30am 12.2 11.3 11.3 94 0.5 WNW 7 11 4 6 1013.9 1013.9 0.0
30/03:00am 12.2 10.9 11.3 94 0.5 NW 9 13 5 7 1013.9 1013.9 0.0
30/02:30am 12.1 11.2 11.2 94 0.5 NW 7 9 4 5 1014.1 1014.1 0.0
30/02:00am 12.1 10.8 11.3 95 0.4 NW 9 13 5 7 1014.5 1014.5 0.0
30/01:30am 11.9 10.6 11.1 95 0.4 NW 9 13 5 7 1014.8 1014.8 0.0
30/01:00am 11.4 9.9 10.6 95 0.4 NW 9 13 5 7 1015.2 1015.2 0.0
30/12:30am 10.1 8.6 9.3 95 0.4 NW 7 9 4 5 1015.3 1015.3 0.0
30/12:00am 9.6 8.2 8.7 94 0.4 WNW 6 7 3 4 1015.4 1015.4 0.0
 
Date/Time
EDT
Temp
°C
App
Temp
°C
Dew
Point
Rel
Hum
%
Delta-T
°C
Wind Press
QNH
hPa
Press
MSL
hPa
Rain
since 9 am
mm
Dir
 
Spd
km/h
Gust
km/h
Spd
kts
Gust
kts
29/11:30pm 9.6 8.2 8.7 94 0.4 NNW 6 6 3 3 1015.3 1015.3 0.0
29/11:00pm 9.1 7.5 8.0 93 0.5 NNW 6 7 3 4 1015.5 1015.5 0.0
29/10:30pm 9.7 7.7 8.5 92 0.6 WNW 9 11 5 6 1015.8 1015.8 0.0
29/10:00pm 10.5 8.3 9.3 92 0.6 WNW 11 13 6 7 1015.9 1015.9 0.0

Other Formats:

Comma delimited format used in spreadsheet applications
http://www.bom.gov.au/fwo/IDV60801/IDV60801.94911.axf

JavaScript Object Notation format (JSON) in row-major order
http://www.bom.gov.au/fwo/IDV60801/IDV60801.94911.json